sensor_id;sensor_type;location;lat;lon;timestamp;P1;durP1;ratioP1;P2;durP2;ratioP2
52414;SDS011;38340;52.964;6.086;2023-06-22T00:00:58;12.52;;;11.30;;
52414;SDS011;38340;52.964;6.086;2023-06-22T00:03:24;16.42;;;14.82;;
52414;SDS011;38340;52.964;6.086;2023-06-22T00:05:51;16.70;;;14.85;;
52414;SDS011;38340;52.964;6.086;2023-06-22T00:08:17;15.98;;;14.32;;
52414;SDS011;38340;52.964;6.086;2023-06-22T00:10:44;16.08;;;14.40;;
52414;SDS011;38340;52.964;6.086;2023-06-22T00:13:11;13.48;;;11.93;;
52414;SDS011;38340;52.964;6.086;2023-06-22T00:15:38;13.13;;;11.82;;
52414;SDS011;38340;52.964;6.086;2023-06-22T00:18:06;14.02;;;12.52;;
52414;SDS011;38340;52.964;6.086;2023-06-22T00:20:32;14.88;;;13.35;;
52414;SDS011;38340;52.964;6.086;2023-06-22T00:23:01;15.63;;;14.02;;
52414;SDS011;38340;52.964;6.086;2023-06-22T00:25:33;15.10;;;12.52;;
52414;SDS011;38340;52.964;6.086;2023-06-22T00:28:05;13.35;;;12.00;;
52414;SDS011;38340;52.964;6.086;2023-06-22T00:30:31;14.73;;;13.20;;
52414;SDS011;38340;52.964;6.086;2023-06-22T00:32:57;14.90;;;13.40;;
52414;SDS011;38340;52.964;6.086;2023-06-22T00:35:24;13.18;;;11.93;;
52414;SDS011;38340;52.964;6.086;2023-06-22T00:37:58;15.13;;;13.50;;
52414;SDS011;38340;52.964;6.086;2023-06-22T00:40:29;16.17;;;12.88;;
52414;SDS011;38340;52.964;6.086;2023-06-22T00:42:56;298.75;;;29.20;;
52414;SDS011;38340;52.964;6.086;2023-06-22T00:45:22;15.13;;;11.88;;
52414;SDS011;38340;52.964;6.086;2023-06-22T00:47:52;49.97;;;11.13;;
52414;SDS011;38340;52.964;6.086;2023-06-22T00:50:22;27.65;;;11.82;;
52414;SDS011;38340;52.964;6.086;2023-06-22T00:52:56;79.25;;;13.85;;
52414;SDS011;38340;52.964;6.086;2023-06-22T00:55:24;13.57;;;10.70;;
52414;SDS011;38340;52.964;6.086;2023-06-22T00:57:53;12.23;;;11.05;;
52414;SDS011;38340;52.964;6.086;2023-06-22T01:00:22;13.88;;;11.98;;
52414;SDS011;38340;52.964;6.086;2023-06-22T01:02:50;10.85;;;9.85;;
52414;SDS011;38340;52.964;6.086;2023-06-22T01:05:21;13.40;;;12.00;;
52414;SDS011;38340;52.964;6.086;2023-06-22T01:11:03;11.85;;;8.85;;
52414;SDS011;38340;52.964;6.086;2023-06-22T01:16:29;9.90;;;9.00;;
52414;SDS011;38340;52.964;6.086;2023-06-22T01:18:57;8.50;;;7.80;;
52414;SDS011;38340;52.964;6.086;2023-06-22T01:21:33;7.75;;;7.05;;
52414;SDS011;38340;52.964;6.086;2023-06-22T01:29:31;9.40;;;8.13;;
52414;SDS011;38340;52.964;6.086;2023-06-22T01:32:00;8.98;;;8.10;;
52414;SDS011;38340;52.964;6.086;2023-06-22T01:34:27;8.38;;;7.57;;
52414;SDS011;38340;52.964;6.086;2023-06-22T01:36:55;9.55;;;7.88;;
52414;SDS011;38340;52.964;6.086;2023-06-22T01:39:23;23.00;;;12.05;;
52414;SDS011;38340;52.964;6.086;2023-06-22T01:41:49;26.10;;;15.40;;
52414;SDS011;38340;52.964;6.086;2023-06-22T01:44:15;18.40;;;14.13;;
52414;SDS011;38340;52.964;6.086;2023-06-22T01:46:41;14.88;;;13.27;;
52414;SDS011;38340;52.964;6.086;2023-06-22T01:49:07;14.13;;;12.68;;
52414;SDS011;38340;52.964;6.086;2023-06-22T01:51:34;13.63;;;12.32;;
52414;SDS011;38340;52.964;6.086;2023-06-22T01:54:00;33.20;;;16.98;;
52414;SDS011;38340;52.964;6.086;2023-06-22T01:56:27;20.73;;;17.77;;
52414;SDS011;38340;52.964;6.086;2023-06-22T02:01:41;12.57;;;11.30;;
52414;SDS011;38340;52.964;6.086;2023-06-22T02:04:11;14.50;;;13.20;;
52414;SDS011;38340;52.964;6.086;2023-06-22T02:06:43;83.55;;;17.13;;
52414;SDS011;38340;52.964;6.086;2023-06-22T02:09:16;92.80;;;20.38;;
52414;SDS011;38340;52.964;6.086;2023-06-22T02:11:45;108.38;;;21.20;;
52414;SDS011;38340;52.964;6.086;2023-06-22T02:14:13;106.88;;;24.52;;
52414;SDS011;38340;52.964;6.086;2023-06-22T02:16:40;270.77;;;33.20;;
52414;SDS011;38340;52.964;6.086;2023-06-22T02:19:06;90.95;;;24.50;;
52414;SDS011;38340;52.964;6.086;2023-06-22T02:21:33;235.43;;;33.17;;
52414;SDS011;38340;52.964;6.086;2023-06-22T02:23:59;176.30;;;29.42;;
52414;SDS011;38340;52.964;6.086;2023-06-22T02:26:25;171.77;;;28.80;;
52414;SDS011;38340;52.964;6.086;2023-06-22T02:28:51;141.65;;;29.98;;
52414;SDS011;38340;52.964;6.086;2023-06-22T02:31:17;30.58;;;20.55;;
52414;SDS011;38340;52.964;6.086;2023-06-22T02:33:44;26.67;;;21.83;;
52414;SDS011;38340;52.964;6.086;2023-06-22T02:36:10;32.90;;;21.58;;
52414;SDS011;38340;52.964;6.086;2023-06-22T02:38:38;32.63;;;21.70;;
52414;SDS011;38340;52.964;6.086;2023-06-22T02:41:13;21.60;;;19.38;;
52414;SDS011;38340;52.964;6.086;2023-06-22T02:43:45;37.20;;;19.45;;
52414;SDS011;38340;52.964;6.086;2023-06-22T02:46:11;34.92;;;17.42;;
52414;SDS011;38340;52.964;6.086;2023-06-22T02:48:38;51.33;;;23.23;;
52414;SDS011;38340;52.964;6.086;2023-06-22T02:51:05;107.35;;;26.38;;
52414;SDS011;38340;52.964;6.086;2023-06-22T02:53:31;38.88;;;22.35;;
52414;SDS011;38340;52.964;6.086;2023-06-22T02:55:57;133.40;;;22.60;;
52414;SDS011;38340;52.964;6.086;2023-06-22T02:58:23;198.23;;;26.40;;
52414;SDS011;38340;52.964;6.086;2023-06-22T03:00:49;135.68;;;23.40;;
52414;SDS011;38340;52.964;6.086;2023-06-22T03:03:18;108.05;;;26.05;;
52414;SDS011;38340;52.964;6.086;2023-06-22T03:05:44;47.72;;;18.92;;
52414;SDS011;38340;52.964;6.086;2023-06-22T03:08:10;38.05;;;20.38;;
52414;SDS011;38340;52.964;6.086;2023-06-22T03:10:36;102.90;;;27.00;;
52414;SDS011;38340;52.964;6.086;2023-06-22T03:13:02;64.32;;;24.45;;
52414;SDS011;38340;52.964;6.086;2023-06-22T03:15:28;83.90;;;26.20;;
52414;SDS011;38340;52.964;6.086;2023-06-22T03:17:57;144.85;;;28.00;;
52414;SDS011;38340;52.964;6.086;2023-06-22T03:20:23;50.40;;;19.17;;
52414;SDS011;38340;52.964;6.086;2023-06-22T03:22:50;52.00;;;20.73;;
52414;SDS011;38340;52.964;6.086;2023-06-22T03:25:15;47.50;;;20.98;;
52414;SDS011;38340;52.964;6.086;2023-06-22T03:27:41;41.60;;;20.45;;
52414;SDS011;38340;52.964;6.086;2023-06-22T03:30:10;36.92;;;21.20;;
52414;SDS011;38340;52.964;6.086;2023-06-22T03:32:36;38.03;;;21.17;;
52414;SDS011;38340;52.964;6.086;2023-06-22T03:35:02;87.20;;;25.08;;
52414;SDS011;38340;52.964;6.086;2023-06-22T03:37:28;61.55;;;20.27;;
52414;SDS011;38340;52.964;6.086;2023-06-22T03:39:54;39.60;;;20.17;;
52414;SDS011;38340;52.964;6.086;2023-06-22T03:42:20;36.50;;;19.48;;
52414;SDS011;38340;52.964;6.086;2023-06-22T03:44:46;21.85;;;18.75;;
52414;SDS011;38340;52.964;6.086;2023-06-22T03:47:12;78.20;;;22.25;;
52414;SDS011;38340;52.964;6.086;2023-06-22T03:49:37;46.35;;;19.90;;
52414;SDS011;38340;52.964;6.086;2023-06-22T03:52:03;47.95;;;20.10;;
52414;SDS011;38340;52.964;6.086;2023-06-22T03:54:29;28.73;;;17.90;;
52414;SDS011;38340;52.964;6.086;2023-06-22T03:56:58;22.70;;;19.58;;
52414;SDS011;38340;52.964;6.086;2023-06-22T03:59:24;20.00;;;18.10;;
52414;SDS011;38340;52.964;6.086;2023-06-22T04:01:50;31.80;;;22.88;;
52414;SDS011;38340;52.964;6.086;2023-06-22T04:04:17;37.80;;;26.05;;
52414;SDS011;38340;52.964;6.086;2023-06-22T04:06:43;50.20;;;28.63;;
52414;SDS011;38340;52.964;6.086;2023-06-22T04:09:09;59.08;;;25.63;;
52414;SDS011;38340;52.964;6.086;2023-06-22T04:11:34;24.60;;;22.20;;
52414;SDS011;38340;52.964;6.086;2023-06-22T04:14:00;27.02;;;24.25;;
52414;SDS011;38340;52.964;6.086;2023-06-22T04:16:25;25.80;;;23.00;;
52414;SDS011;38340;52.964;6.086;2023-06-22T04:18:51;26.95;;;24.08;;
52414;SDS011;38340;52.964;6.086;2023-06-22T04:21:17;116.70;;;31.30;;
52414;SDS011;38340;52.964;6.086;2023-06-22T04:23:44;44.17;;;26.45;;
52414;SDS011;38340;52.964;6.086;2023-06-22T04:26:11;137.85;;;32.53;;
52414;SDS011;38340;52.964;6.086;2023-06-22T04:28:37;102.10;;;30.42;;
52414;SDS011;38340;52.964;6.086;2023-06-22T04:31:03;113.35;;;31.02;;
52414;SDS011;38340;52.964;6.086;2023-06-22T04:33:30;38.65;;;28.92;;
52414;SDS011;38340;52.964;6.086;2023-06-22T04:35:55;29.15;;;25.75;;
52414;SDS011;38340;52.964;6.086;2023-06-22T04:38:22;34.30;;;27.30;;
52414;SDS011;38340;52.964;6.086;2023-06-22T04:40:49;25.00;;;22.55;;
52414;SDS011;38340;52.964;6.086;2023-06-22T04:43:15;27.83;;;24.98;;
52414;SDS011;38340;52.964;6.086;2023-06-22T04:45:41;25.52;;;23.02;;
52414;SDS011;38340;52.964;6.086;2023-06-22T04:48:07;31.50;;;27.65;;
52414;SDS011;38340;52.964;6.086;2023-06-22T04:50:35;32.25;;;28.83;;
52414;SDS011;38340;52.964;6.086;2023-06-22T04:53:03;33.88;;;28.60;;
52414;SDS011;38340;52.964;6.086;2023-06-22T04:55:31;32.83;;;28.27;;
52414;SDS011;38340;52.964;6.086;2023-06-22T04:57:57;32.80;;;29.25;;
52414;SDS011;38340;52.964;6.086;2023-06-22T05:00:30;31.10;;;27.70;;
52414;SDS011;38340;52.964;6.086;2023-06-22T05:02:56;29.38;;;25.58;;
52414;SDS011;38340;52.964;6.086;2023-06-22T05:05:24;28.60;;;25.58;;
52414;SDS011;38340;52.964;6.086;2023-06-22T05:07:50;29.88;;;25.63;;
52414;SDS011;38340;52.964;6.086;2023-06-22T05:10:24;30.77;;;27.42;;
52414;SDS011;38340;52.964;6.086;2023-06-22T05:12:51;33.20;;;27.00;;
52414;SDS011;38340;52.964;6.086;2023-06-22T05:15:17;27.80;;;25.05;;
52414;SDS011;38340;52.964;6.086;2023-06-22T05:17:44;28.63;;;25.52;;
52414;SDS011;38340;52.964;6.086;2023-06-22T05:20:13;26.90;;;23.83;;
52414;SDS011;38340;52.964;6.086;2023-06-22T05:22:39;28.10;;;24.20;;
52414;SDS011;38340;52.964;6.086;2023-06-22T05:25:08;29.45;;;26.13;;
52414;SDS011;38340;52.964;6.086;2023-06-22T05:27:35;30.67;;;26.05;;
52414;SDS011;38340;52.964;6.086;2023-06-22T05:30:07;30.35;;;26.67;;
52414;SDS011;38340;52.964;6.086;2023-06-22T05:32:34;29.35;;;26.05;;
52414;SDS011;38340;52.964;6.086;2023-06-22T05:35:00;32.53;;;27.27;;
52414;SDS011;38340;52.964;6.086;2023-06-22T05:37:25;35.22;;;27.45;;
52414;SDS011;38340;52.964;6.086;2023-06-22T05:39:51;31.27;;;27.08;;
52414;SDS011;38340;52.964;6.086;2023-06-22T05:42:17;33.33;;;27.27;;
52414;SDS011;38340;52.964;6.086;2023-06-22T05:44:43;32.97;;;28.88;;
52414;SDS011;38340;52.964;6.086;2023-06-22T05:47:08;33.45;;;27.75;;
52414;SDS011;38340;52.964;6.086;2023-06-22T05:49:34;31.73;;;27.73;;
52414;SDS011;38340;52.964;6.086;2023-06-22T05:52:00;34.90;;;28.15;;
52414;SDS011;38340;52.964;6.086;2023-06-22T05:54:29;32.85;;;28.42;;
52414;SDS011;38340;52.964;6.086;2023-06-22T05:56:55;31.05;;;27.73;;
52414;SDS011;38340;52.964;6.086;2023-06-22T05:59:21;30.13;;;26.90;;
52414;SDS011;38340;52.964;6.086;2023-06-22T06:01:47;31.75;;;28.45;;
52414;SDS011;38340;52.964;6.086;2023-06-22T06:04:16;30.55;;;26.67;;
52414;SDS011;38340;52.964;6.086;2023-06-22T06:06:43;29.05;;;25.95;;
52414;SDS011;38340;52.964;6.086;2023-06-22T06:09:08;27.50;;;24.48;;
52414;SDS011;38340;52.964;6.086;2023-06-22T06:11:34;27.90;;;25.05;;
52414;SDS011;38340;52.964;6.086;2023-06-22T06:14:00;28.50;;;25.63;;
52414;SDS011;38340;52.964;6.086;2023-06-22T06:16:26;27.85;;;24.95;;
52414;SDS011;38340;52.964;6.086;2023-06-22T06:18:51;27.95;;;24.67;;
52414;SDS011;38340;52.964;6.086;2023-06-22T06:21:19;26.50;;;23.80;;
52414;SDS011;38340;52.964;6.086;2023-06-22T06:23:45;24.10;;;21.60;;
52414;SDS011;38340;52.964;6.086;2023-06-22T06:26:12;25.67;;;23.15;;
52414;SDS011;38340;52.964;6.086;2023-06-22T06:28:38;26.63;;;23.15;;
52414;SDS011;38340;52.964;6.086;2023-06-22T06:31:03;23.35;;;21.05;;
52414;SDS011;38340;52.964;6.086;2023-06-22T06:33:32;25.88;;;21.88;;
52414;SDS011;38340;52.964;6.086;2023-06-22T06:35:58;22.45;;;20.17;;
52414;SDS011;38340;52.964;6.086;2023-06-22T06:38:26;23.50;;;20.63;;
52414;SDS011;38340;52.964;6.086;2023-06-22T06:40:52;23.77;;;21.23;;
52414;SDS011;38340;52.964;6.086;2023-06-22T06:43:18;22.90;;;20.50;;
52414;SDS011;38340;52.964;6.086;2023-06-22T06:45:43;22.15;;;19.75;;
52414;SDS011;38340;52.964;6.086;2023-06-22T06:48:09;21.50;;;19.33;;
52414;SDS011;38340;52.964;6.086;2023-06-22T06:50:35;21.45;;;19.33;;
52414;SDS011;38340;52.964;6.086;2023-06-22T06:53:00;21.48;;;19.23;;
52414;SDS011;38340;52.964;6.086;2023-06-22T06:55:26;21.92;;;19.55;;
52414;SDS011;38340;52.964;6.086;2023-06-22T06:57:53;20.52;;;18.35;;
52414;SDS011;38340;52.964;6.086;2023-06-22T07:00:19;20.27;;;18.17;;
52414;SDS011;38340;52.964;6.086;2023-06-22T07:02:46;20.67;;;18.58;;
52414;SDS011;38340;52.964;6.086;2023-06-22T07:05:13;20.77;;;18.40;;
52414;SDS011;38340;52.964;6.086;2023-06-22T07:07:39;21.52;;;19.23;;
52414;SDS011;38340;52.964;6.086;2023-06-22T07:10:06;20.40;;;18.40;;
52414;SDS011;38340;52.964;6.086;2023-06-22T07:12:33;22.83;;;18.65;;
52414;SDS011;38340;52.964;6.086;2023-06-22T07:15:06;21.67;;;19.48;;
52414;SDS011;38340;52.964;6.086;2023-06-22T07:17:33;22.30;;;20.05;;
52414;SDS011;38340;52.964;6.086;2023-06-22T07:19:59;21.30;;;19.00;;
52414;SDS011;38340;52.964;6.086;2023-06-22T07:22:25;23.35;;;19.27;;
52414;SDS011;38340;52.964;6.086;2023-06-22T07:24:51;22.50;;;19.52;;
52414;SDS011;38340;52.964;6.086;2023-06-22T07:27:17;22.88;;;19.58;;
52414;SDS011;38340;52.964;6.086;2023-06-22T07:29:46;22.30;;;19.45;;
52414;SDS011;38340;52.964;6.086;2023-06-22T07:32:12;20.50;;;18.38;;
52414;SDS011;38340;52.964;6.086;2023-06-22T07:34:37;19.10;;;16.13;;
52414;SDS011;38340;52.964;6.086;2023-06-22T07:37:03;17.90;;;15.98;;
52414;SDS011;38340;52.964;6.086;2023-06-22T07:39:30;17.58;;;15.75;;
52414;SDS011;38340;52.964;6.086;2023-06-22T07:41:55;21.90;;;18.35;;
52414;SDS011;38340;52.964;6.086;2023-06-22T07:44:21;20.42;;;17.23;;
52414;SDS011;38340;52.964;6.086;2023-06-22T07:46:47;21.10;;;16.35;;
52414;SDS011;38340;52.964;6.086;2023-06-22T07:49:12;20.05;;;16.75;;
52414;SDS011;38340;52.964;6.086;2023-06-22T07:51:38;21.33;;;17.75;;
52414;SDS011;38340;52.964;6.086;2023-06-22T07:54:04;19.40;;;16.60;;
52414;SDS011;38340;52.964;6.086;2023-06-22T07:56:29;22.45;;;17.38;;
52414;SDS011;38340;52.964;6.086;2023-06-22T07:58:55;19.98;;;16.67;;
52414;SDS011;38340;52.964;6.086;2023-06-22T08:01:23;20.30;;;17.38;;
52414;SDS011;38340;52.964;6.086;2023-06-22T08:03:49;21.77;;;16.80;;
52414;SDS011;38340;52.964;6.086;2023-06-22T08:06:14;18.92;;;16.88;;
52414;SDS011;38340;52.964;6.086;2023-06-22T08:08:41;20.23;;;16.45;;
52414;SDS011;38340;52.964;6.086;2023-06-22T08:11:07;19.83;;;17.38;;
52414;SDS011;38340;52.964;6.086;2023-06-22T08:13:33;22.95;;;17.17;;
52414;SDS011;38340;52.964;6.086;2023-06-22T08:15:59;20.13;;;16.55;;
52414;SDS011;38340;52.964;6.086;2023-06-22T08:18:25;19.30;;;16.00;;
52414;SDS011;38340;52.964;6.086;2023-06-22T08:20:51;18.40;;;16.40;;
52414;SDS011;38340;52.964;6.086;2023-06-22T08:23:17;16.80;;;15.00;;
52414;SDS011;38340;52.964;6.086;2023-06-22T08:25:43;17.63;;;15.30;;
52414;SDS011;38340;52.964;6.086;2023-06-22T08:28:09;17.98;;;15.75;;
52414;SDS011;38340;52.964;6.086;2023-06-22T08:30:35;19.00;;;16.38;;
52414;SDS011;38340;52.964;6.086;2023-06-22T08:33:00;17.75;;;15.73;;
52414;SDS011;38340;52.964;6.086;2023-06-22T08:35:26;22.23;;;17.17;;
52414;SDS011;38340;52.964;6.086;2023-06-22T08:37:52;17.08;;;14.88;;
52414;SDS011;38340;52.964;6.086;2023-06-22T08:40:19;19.60;;;15.60;;
52414;SDS011;38340;52.964;6.086;2023-06-22T08:42:46;17.75;;;15.20;;
52414;SDS011;38340;52.964;6.086;2023-06-22T08:45:13;20.10;;;15.68;;
52414;SDS011;38340;52.964;6.086;2023-06-22T08:47:39;18.15;;;15.80;;
52414;SDS011;38340;52.964;6.086;2023-06-22T08:50:09;20.35;;;14.57;;
52414;SDS011;38340;52.964;6.086;2023-06-22T08:52:35;17.35;;;14.85;;
52414;SDS011;38340;52.964;6.086;2023-06-22T08:55:02;17.88;;;14.90;;
52414;SDS011;38340;52.964;6.086;2023-06-22T08:57:28;16.23;;;14.43;;
52414;SDS011;38340;52.964;6.086;2023-06-22T08:59:55;17.08;;;14.35;;
52414;SDS011;38340;52.964;6.086;2023-06-22T09:02:23;15.18;;;12.80;;
52414;SDS011;38340;52.964;6.086;2023-06-22T09:04:49;17.83;;;14.15;;
52414;SDS011;38340;52.964;6.086;2023-06-22T09:07:20;14.63;;;13.13;;
52414;SDS011;38340;52.964;6.086;2023-06-22T09:09:50;15.45;;;13.13;;
52414;SDS011;38340;52.964;6.086;2023-06-22T09:12:17;16.67;;;12.25;;
52414;SDS011;38340;52.964;6.086;2023-06-22T09:14:45;15.48;;;13.63;;
52414;SDS011;38340;52.964;6.086;2023-06-22T09:17:12;15.88;;;13.30;;
52414;SDS011;38340;52.964;6.086;2023-06-22T09:19:38;14.68;;;12.93;;
52414;SDS011;38340;52.964;6.086;2023-06-22T09:22:03;17.25;;;11.75;;
52414;SDS011;38340;52.964;6.086;2023-06-22T09:24:31;12.70;;;11.35;;
52414;SDS011;38340;52.964;6.086;2023-06-22T09:26:57;14.15;;;12.65;;
52414;SDS011;38340;52.964;6.086;2023-06-22T09:29:23;15.80;;;13.07;;
52414;SDS011;38340;52.964;6.086;2023-06-22T09:31:49;14.75;;;12.63;;
52414;SDS011;38340;52.964;6.086;2023-06-22T09:34:15;16.40;;;12.32;;
52414;SDS011;38340;52.964;6.086;2023-06-22T09:36:48;13.88;;;12.30;;
52414;SDS011;38340;52.964;6.086;2023-06-22T09:39:13;13.55;;;12.13;;
52414;SDS011;38340;52.964;6.086;2023-06-22T09:41:39;13.63;;;12.07;;
52414;SDS011;38340;52.964;6.086;2023-06-22T09:44:05;13.27;;;11.93;;
52414;SDS011;38340;52.964;6.086;2023-06-22T09:46:31;13.48;;;11.15;;
52414;SDS011;38340;52.964;6.086;2023-06-22T09:48:56;14.40;;;10.75;;
52414;SDS011;38340;52.964;6.086;2023-06-22T09:51:22;12.05;;;10.10;;
52414;SDS011;38340;52.964;6.086;2023-06-22T09:53:51;12.45;;;11.13;;
52414;SDS011;38340;52.964;6.086;2023-06-22T09:56:19;13.93;;;12.18;;
52414;SDS011;38340;52.964;6.086;2023-06-22T09:58:45;13.35;;;12.02;;
52414;SDS011;38340;52.964;6.086;2023-06-22T10:01:11;13.90;;;10.50;;
52414;SDS011;38340;52.964;6.086;2023-06-22T10:03:39;20.20;;;12.40;;
52414;SDS011;38340;52.964;6.086;2023-06-22T10:06:06;14.50;;;11.15;;
52414;SDS011;38340;52.964;6.086;2023-06-22T10:08:32;13.23;;;11.77;;
52414;SDS011;38340;52.964;6.086;2023-06-22T10:10:58;12.95;;;11.57;;
52414;SDS011;38340;52.964;6.086;2023-06-22T10:13:24;12.95;;;11.50;;
52414;SDS011;38340;52.964;6.086;2023-06-22T10:15:50;12.75;;;11.23;;
52414;SDS011;38340;52.964;6.086;2023-06-22T10:18:20;11.25;;;9.55;;
52414;SDS011;38340;52.964;6.086;2023-06-22T10:20:49;13.90;;;10.93;;
52414;SDS011;38340;52.964;6.086;2023-06-22T10:23:16;11.60;;;10.32;;
52414;SDS011;38340;52.964;6.086;2023-06-22T10:25:43;17.15;;;9.70;;
52414;SDS011;38340;52.964;6.086;2023-06-22T10:28:08;9.80;;;8.80;;
52414;SDS011;38340;52.964;6.086;2023-06-22T10:30:34;9.95;;;8.57;;
52414;SDS011;38340;52.964;6.086;2023-06-22T10:33:00;9.05;;;8.13;;
52414;SDS011;38340;52.964;6.086;2023-06-22T10:35:25;9.07;;;7.50;;
52414;SDS011;38340;52.964;6.086;2023-06-22T10:37:51;9.90;;;7.90;;
52414;SDS011;38340;52.964;6.086;2023-06-22T10:40:17;13.77;;;8.52;;
52414;SDS011;38340;52.964;6.086;2023-06-22T10:42:43;11.25;;;8.60;;
52414;SDS011;38340;52.964;6.086;2023-06-22T10:45:10;9.50;;;7.63;;
52414;SDS011;38340;52.964;6.086;2023-06-22T10:47:36;9.32;;;6.90;;
52414;SDS011;38340;52.964;6.086;2023-06-22T10:50:02;9.07;;;7.65;;
52414;SDS011;38340;52.964;6.086;2023-06-22T10:52:28;10.82;;;7.22;;
52414;SDS011;38340;52.964;6.086;2023-06-22T10:54:54;8.77;;;6.78;;
52414;SDS011;38340;52.964;6.086;2023-06-22T10:57:21;8.50;;;7.60;;
52414;SDS011;38340;52.964;6.086;2023-06-22T10:59:47;9.95;;;7.03;;
52414;SDS011;38340;52.964;6.086;2023-06-22T11:02:12;7.60;;;6.47;;
52414;SDS011;38340;52.964;6.086;2023-06-22T11:04:38;8.40;;;7.47;;
52414;SDS011;38340;52.964;6.086;2023-06-22T11:07:04;12.57;;;8.02;;
52414;SDS011;38340;52.964;6.086;2023-06-22T11:09:30;9.85;;;6.65;;
52414;SDS011;38340;52.964;6.086;2023-06-22T11:11:56;8.38;;;5.70;;
52414;SDS011;38340;52.964;6.086;2023-06-22T11:14:24;8.90;;;5.85;;
52414;SDS011;38340;52.964;6.086;2023-06-22T11:16:49;6.78;;;5.88;;
52414;SDS011;38340;52.964;6.086;2023-06-22T11:19:15;8.02;;;6.47;;
52414;SDS011;38340;52.964;6.086;2023-06-22T11:21:41;7.75;;;7.05;;
52414;SDS011;38340;52.964;6.086;2023-06-22T11:24:06;12.10;;;6.18;;
52414;SDS011;38340;52.964;6.086;2023-06-22T11:26:32;6.85;;;6.07;;
52414;SDS011;38340;52.964;6.086;2023-06-22T11:28:58;9.07;;;6.50;;
52414;SDS011;38340;52.964;6.086;2023-06-22T11:31:24;7.95;;;6.60;;
52414;SDS011;38340;52.964;6.086;2023-06-22T11:33:50;7.57;;;6.55;;
52414;SDS011;38340;52.964;6.086;2023-06-22T11:36:15;12.50;;;7.03;;
52414;SDS011;38340;52.964;6.086;2023-06-22T11:38:42;8.23;;;6.85;;
52414;SDS011;38340;52.964;6.086;2023-06-22T11:41:09;8.27;;;6.40;;
52414;SDS011;38340;52.964;6.086;2023-06-22T11:43:35;6.55;;;5.50;;
52414;SDS011;38340;52.964;6.086;2023-06-22T11:46:05;6.45;;;5.68;;
52414;SDS011;38340;52.964;6.086;2023-06-22T11:48:31;9.10;;;6.28;;
52414;SDS011;38340;52.964;6.086;2023-06-22T11:50:57;8.85;;;5.53;;
52414;SDS011;38340;52.964;6.086;2023-06-22T11:53:24;7.10;;;5.90;;
52414;SDS011;38340;52.964;6.086;2023-06-22T11:55:51;6.38;;;5.78;;
52414;SDS011;38340;52.964;6.086;2023-06-22T11:58:19;7.35;;;5.95;;
52414;SDS011;38340;52.964;6.086;2023-06-22T12:00:45;9.20;;;6.65;;
52414;SDS011;38340;52.964;6.086;2023-06-22T12:03:11;7.88;;;5.97;;
52414;SDS011;38340;52.964;6.086;2023-06-22T12:05:37;6.15;;;5.40;;
52414;SDS011;38340;52.964;6.086;2023-06-22T12:08:03;5.68;;;5.18;;
52414;SDS011;38340;52.964;6.086;2023-06-22T12:10:29;7.55;;;6.60;;
52414;SDS011;38340;52.964;6.086;2023-06-22T12:12:55;11.13;;;6.60;;
52414;SDS011;38340;52.964;6.086;2023-06-22T12:15:25;9.35;;;6.35;;
52414;SDS011;38340;52.964;6.086;2023-06-22T12:17:51;8.77;;;6.38;;
52414;SDS011;38340;52.964;6.086;2023-06-22T12:20:17;7.13;;;5.35;;
52414;SDS011;38340;52.964;6.086;2023-06-22T12:22:43;9.77;;;5.57;;
52414;SDS011;38340;52.964;6.086;2023-06-22T12:25:09;7.40;;;5.93;;
52414;SDS011;38340;52.964;6.086;2023-06-22T12:27:35;7.53;;;6.00;;
52414;SDS011;38340;52.964;6.086;2023-06-22T12:30:02;6.55;;;5.85;;
52414;SDS011;38340;52.964;6.086;2023-06-22T12:32:29;7.07;;;6.38;;
52414;SDS011;38340;52.964;6.086;2023-06-22T12:34:55;14.27;;;6.40;;
52414;SDS011;38340;52.964;6.086;2023-06-22T12:37:21;7.38;;;6.68;;
52414;SDS011;38340;52.964;6.086;2023-06-22T12:39:47;7.85;;;6.72;;
52414;SDS011;38340;52.964;6.086;2023-06-22T12:42:13;7.97;;;7.18;;
52414;SDS011;38340;52.964;6.086;2023-06-22T12:44:38;9.25;;;7.40;;
52414;SDS011;38340;52.964;6.086;2023-06-22T12:47:05;8.98;;;6.88;;
52414;SDS011;38340;52.964;6.086;2023-06-22T12:49:31;8.30;;;6.15;;
52414;SDS011;38340;52.964;6.086;2023-06-22T12:51:56;8.95;;;7.18;;
52414;SDS011;38340;52.964;6.086;2023-06-22T12:54:22;7.63;;;6.63;;
52414;SDS011;38340;52.964;6.086;2023-06-22T12:56:49;8.30;;;7.00;;
52414;SDS011;38340;52.964;6.086;2023-06-22T12:59:15;16.65;;;6.88;;
52414;SDS011;38340;52.964;6.086;2023-06-22T13:01:42;12.73;;;7.20;;
52414;SDS011;38340;52.964;6.086;2023-06-22T13:04:09;7.57;;;6.43;;
52414;SDS011;38340;52.964;6.086;2023-06-22T13:06:36;7.97;;;7.00;;
52414;SDS011;38340;52.964;6.086;2023-06-22T13:09:02;10.32;;;8.38;;
52414;SDS011;38340;52.964;6.086;2023-06-22T13:11:30;10.40;;;8.48;;
52414;SDS011;38340;52.964;6.086;2023-06-22T13:13:55;10.00;;;8.23;;
52414;SDS011;38340;52.964;6.086;2023-06-22T13:16:21;10.73;;;8.20;;
52414;SDS011;38340;52.964;6.086;2023-06-22T13:18:47;7.78;;;6.95;;
52414;SDS011;38340;52.964;6.086;2023-06-22T13:21:12;14.18;;;8.18;;
52414;SDS011;38340;52.964;6.086;2023-06-22T13:23:39;19.35;;;9.23;;
52414;SDS011;38340;52.964;6.086;2023-06-22T13:26:05;12.68;;;8.70;;
52414;SDS011;38340;52.964;6.086;2023-06-22T13:28:30;10.07;;;9.05;;
52414;SDS011;38340;52.964;6.086;2023-06-22T13:30:57;12.38;;;10.70;;
52414;SDS011;38340;52.964;6.086;2023-06-22T13:33:22;15.48;;;11.02;;
52414;SDS011;38340;52.964;6.086;2023-06-22T13:35:48;10.57;;;9.48;;
52414;SDS011;38340;52.964;6.086;2023-06-22T13:38:14;11.90;;;10.35;;
52414;SDS011;38340;52.964;6.086;2023-06-22T13:40:40;12.20;;;10.00;;
52414;SDS011;38340;52.964;6.086;2023-06-22T13:43:05;13.50;;;9.68;;
52414;SDS011;38340;52.964;6.086;2023-06-22T13:45:31;11.20;;;9.98;;
52414;SDS011;38340;52.964;6.086;2023-06-22T13:47:57;11.80;;;9.40;;
52414;SDS011;38340;52.964;6.086;2023-06-22T13:50:23;11.13;;;10.02;;
52414;SDS011;38340;52.964;6.086;2023-06-22T13:52:49;11.65;;;9.70;;
52414;SDS011;38340;52.964;6.086;2023-06-22T13:55:15;10.95;;;9.82;;
52414;SDS011;38340;52.964;6.086;2023-06-22T13:57:41;11.30;;;9.85;;
52414;SDS011;38340;52.964;6.086;2023-06-22T14:00:08;13.13;;;9.98;;
52414;SDS011;38340;52.964;6.086;2023-06-22T14:02:34;11.45;;;9.75;;
52414;SDS011;38340;52.964;6.086;2023-06-22T14:05:00;11.18;;;9.98;;
52414;SDS011;38340;52.964;6.086;2023-06-22T14:07:25;11.43;;;8.70;;
52414;SDS011;38340;52.964;6.086;2023-06-22T14:09:51;9.85;;;8.82;;
52414;SDS011;38340;52.964;6.086;2023-06-22T14:12:17;9.98;;;8.15;;
52414;SDS011;38340;52.964;6.086;2023-06-22T14:14:43;9.95;;;8.60;;
52414;SDS011;38340;52.964;6.086;2023-06-22T14:17:09;11.32;;;8.60;;
52414;SDS011;38340;52.964;6.086;2023-06-22T14:19:35;24.98;;;10.13;;
52414;SDS011;38340;52.964;6.086;2023-06-22T14:22:01;11.07;;;8.40;;
52414;SDS011;38340;52.964;6.086;2023-06-22T14:24:27;9.93;;;8.52;;
52414;SDS011;38340;52.964;6.086;2023-06-22T14:26:53;18.10;;;9.02;;
52414;SDS011;38340;52.964;6.086;2023-06-22T14:29:19;14.50;;;8.02;;
52414;SDS011;38340;52.964;6.086;2023-06-22T14:31:45;11.48;;;7.55;;
52414;SDS011;38340;52.964;6.086;2023-06-22T14:34:12;8.85;;;7.45;;
52414;SDS011;38340;52.964;6.086;2023-06-22T14:36:37;7.60;;;6.65;;
52414;SDS011;38340;52.964;6.086;2023-06-22T14:39:03;9.88;;;7.43;;